sensor_id;sensor_type;location;lat;lon;timestamp;P1;durP1;ratioP1;P2;durP2;ratioP2
27357;SDS011;14831;50.474;7.616;2023-12-29T00:02:47;4.2;;;2.4;;
27357;SDS011;14831;50.474;7.616;2023-12-29T00:07:47;4.2;;;2.4;;
27357;SDS011;14831;50.474;7.616;2023-12-29T00:12:47;4.2;;;2.4;;
27357;SDS011;14831;50.474;7.616;2023-12-29T00:17:47;3.9;;;3.0;;
27357;SDS011;14831;50.474;7.616;2023-12-29T00:22:47;3.9;;;3.0;;
27357;SDS011;14831;50.474;7.616;2023-12-29T00:27:47;3.9;;;3.0;;
27357;SDS011;14831;50.474;7.616;2023-12-29T00:32:47;3.9;;;3.0;;
27357;SDS011;14831;50.474;7.616;2023-12-29T00:37:49;3.9;;;3.0;;
27357;SDS011;14831;50.474;7.616;2023-12-29T00:42:47;3.9;;;3.0;;
27357;SDS011;14831;50.474;7.616;2023-12-29T00:47:47;5.6;;;3.7;;
27357;SDS011;14831;50.474;7.616;2023-12-29T00:52:47;5.6;;;3.7;;
27357;SDS011;14831;50.474;7.616;2023-12-29T00:57:47;5.6;;;3.7;;
27357;SDS011;14831;50.474;7.616;2023-12-29T01:02:47;5.6;;;3.7;;
27357;SDS011;14831;50.474;7.616;2023-12-29T01:07:47;5.6;;;3.7;;
27357;SDS011;14831;50.474;7.616;2023-12-29T01:12:47;5.6;;;3.7;;
27357;SDS011;14831;50.474;7.616;2023-12-29T01:17:48;4.7;;;3.3;;
27357;SDS011;14831;50.474;7.616;2023-12-29T01:22:47;4.7;;;3.3;;
27357;SDS011;14831;50.474;7.616;2023-12-29T01:27:47;4.7;;;3.3;;
27357;SDS011;14831;50.474;7.616;2023-12-29T01:32:47;4.7;;;3.3;;
27357;SDS011;14831;50.474;7.616;2023-12-29T01:37:47;4.7;;;3.3;;
27357;SDS011;14831;50.474;7.616;2023-12-29T01:42:48;4.7;;;3.3;;
27357;SDS011;14831;50.474;7.616;2023-12-29T01:47:48;3.6;;;2.5;;
27357;SDS011;14831;50.474;7.616;2023-12-29T01:52:48;3.6;;;2.5;;
27357;SDS011;14831;50.474;7.616;2023-12-29T01:57:48;3.6;;;2.5;;
27357;SDS011;14831;50.474;7.616;2023-12-29T02:02:48;3.6;;;2.5;;
27357;SDS011;14831;50.474;7.616;2023-12-29T02:07:50;3.6;;;2.5;;
27357;SDS011;14831;50.474;7.616;2023-12-29T02:12:47;3.6;;;2.5;;
27357;SDS011;14831;50.474;7.616;2023-12-29T02:17:52;5.0;;;2.8;;
27357;SDS011;14831;50.474;7.616;2023-12-29T02:22:47;5.0;;;2.8;;
27357;SDS011;14831;50.474;7.616;2023-12-29T02:27:52;5.0;;;2.8;;
27357;SDS011;14831;50.474;7.616;2023-12-29T02:32:49;5.0;;;2.8;;
27357;SDS011;14831;50.474;7.616;2023-12-29T02:37:48;5.0;;;2.8;;
27357;SDS011;14831;50.474;7.616;2023-12-29T02:42:48;5.0;;;2.8;;
27357;SDS011;14831;50.474;7.616;2023-12-29T02:47:48;7.5;;;3.4;;
27357;SDS011;14831;50.474;7.616;2023-12-29T02:52:47;7.5;;;3.4;;
27357;SDS011;14831;50.474;7.616;2023-12-29T02:57:48;7.5;;;3.4;;
27357;SDS011;14831;50.474;7.616;2023-12-29T03:02:47;7.5;;;3.4;;
27357;SDS011;14831;50.474;7.616;2023-12-29T03:07:47;7.5;;;3.4;;
27357;SDS011;14831;50.474;7.616;2023-12-29T03:12:47;7.5;;;3.4;;
27357;SDS011;14831;50.474;7.616;2023-12-29T03:17:47;7.2;;;3.0;;
27357;SDS011;14831;50.474;7.616;2023-12-29T03:22:47;7.2;;;3.0;;
27357;SDS011;14831;50.474;7.616;2023-12-29T03:27:47;7.2;;;3.0;;
27357;SDS011;14831;50.474;7.616;2023-12-29T03:32:47;7.2;;;3.0;;
27357;SDS011;14831;50.474;7.616;2023-12-29T03:37:47;7.2;;;3.0;;
27357;SDS011;14831;50.474;7.616;2023-12-29T03:42:47;7.2;;;3.0;;
27357;SDS011;14831;50.474;7.616;2023-12-29T03:47:47;5.2;;;2.8;;
27357;SDS011;14831;50.474;7.616;2023-12-29T03:52:47;5.2;;;2.8;;
27357;SDS011;14831;50.474;7.616;2023-12-29T03:57:47;5.2;;;2.8;;
27357;SDS011;14831;50.474;7.616;2023-12-29T04:02:47;5.2;;;2.8;;
27357;SDS011;14831;50.474;7.616;2023-12-29T04:07:47;5.2;;;2.8;;
27357;SDS011;14831;50.474;7.616;2023-12-29T04:12:47;5.2;;;2.8;;
27357;SDS011;14831;50.474;7.616;2023-12-29T04:17:47;7.1;;;2.8;;
27357;SDS011;14831;50.474;7.616;2023-12-29T04:22:47;7.1;;;2.8;;
27357;SDS011;14831;50.474;7.616;2023-12-29T04:27:47;7.1;;;2.8;;
27357;SDS011;14831;50.474;7.616;2023-12-29T04:32:47;7.1;;;2.8;;
27357;SDS011;14831;50.474;7.616;2023-12-29T04:37:47;7.1;;;2.8;;
27357;SDS011;14831;50.474;7.616;2023-12-29T04:42:47;7.1;;;2.8;;
27357;SDS011;14831;50.474;7.616;2023-12-29T04:47:47;6.2;;;2.4;;
27357;SDS011;14831;50.474;7.616;2023-12-29T04:52:47;6.2;;;2.4;;
27357;SDS011;14831;50.474;7.616;2023-12-29T04:57:47;6.2;;;2.4;;
27357;SDS011;14831;50.474;7.616;2023-12-29T05:02:47;6.2;;;2.4;;
27357;SDS011;14831;50.474;7.616;2023-12-29T05:07:47;6.2;;;2.4;;
27357;SDS011;14831;50.474;7.616;2023-12-29T05:12:47;6.2;;;2.4;;
27357;SDS011;14831;50.474;7.616;2023-12-29T05:17:47;6.9;;;2.6;;
27357;SDS011;14831;50.474;7.616;2023-12-29T05:22:47;6.9;;;2.6;;
27357;SDS011;14831;50.474;7.616;2023-12-29T05:27:47;6.9;;;2.6;;
27357;SDS011;14831;50.474;7.616;2023-12-29T05:32:47;6.9;;;2.6;;
27357;SDS011;14831;50.474;7.616;2023-12-29T05:37:47;6.9;;;2.6;;
27357;SDS011;14831;50.474;7.616;2023-12-29T05:42:47;6.9;;;2.6;;
27357;SDS011;14831;50.474;7.616;2023-12-29T05:47:47;6.6;;;3.1;;
27357;SDS011;14831;50.474;7.616;2023-12-29T05:52:47;6.6;;;3.1;;
27357;SDS011;14831;50.474;7.616;2023-12-29T05:57:47;6.6;;;3.1;;
27357;SDS011;14831;50.474;7.616;2023-12-29T06:02:47;6.6;;;3.1;;
27357;SDS011;14831;50.474;7.616;2023-12-29T06:07:47;6.6;;;3.1;;
27357;SDS011;14831;50.474;7.616;2023-12-29T06:12:47;6.6;;;3.1;;
27357;SDS011;14831;50.474;7.616;2023-12-29T06:17:47;7.4;;;3.0;;
27357;SDS011;14831;50.474;7.616;2023-12-29T06:22:47;7.4;;;3.0;;
27357;SDS011;14831;50.474;7.616;2023-12-29T06:27:47;7.4;;;3.0;;
27357;SDS011;14831;50.474;7.616;2023-12-29T06:32:47;7.4;;;3.0;;
27357;SDS011;14831;50.474;7.616;2023-12-29T06:37:47;7.4;;;3.0;;
27357;SDS011;14831;50.474;7.616;2023-12-29T06:42:47;7.4;;;3.0;;
27357;SDS011;14831;50.474;7.616;2023-12-29T06:47:47;5.9;;;2.8;;
27357;SDS011;14831;50.474;7.616;2023-12-29T06:52:47;5.9;;;2.8;;
27357;SDS011;14831;50.474;7.616;2023-12-29T06:57:47;5.9;;;2.8;;
27357;SDS011;14831;50.474;7.616;2023-12-29T07:02:47;5.9;;;2.8;;
27357;SDS011;14831;50.474;7.616;2023-12-29T07:07:47;5.9;;;2.8;;
27357;SDS011;14831;50.474;7.616;2023-12-29T07:12:47;5.9;;;2.8;;
27357;SDS011;14831;50.474;7.616;2023-12-29T07:17:47;6.3;;;3.4;;
27357;SDS011;14831;50.474;7.616;2023-12-29T07:22:47;6.3;;;3.4;;
27357;SDS011;14831;50.474;7.616;2023-12-29T07:27:47;6.3;;;3.4;;
27357;SDS011;14831;50.474;7.616;2023-12-29T07:32:47;6.3;;;3.4;;
27357;SDS011;14831;50.474;7.616;2023-12-29T07:37:47;6.3;;;3.4;;
27357;SDS011;14831;50.474;7.616;2023-12-29T07:42:47;6.3;;;3.4;;
27357;SDS011;14831;50.474;7.616;2023-12-29T07:47:47;5.9;;;2.9;;
27357;SDS011;14831;50.474;7.616;2023-12-29T07:52:47;5.9;;;2.9;;
27357;SDS011;14831;50.474;7.616;2023-12-29T07:57:47;5.9;;;2.9;;
27357;SDS011;14831;50.474;7.616;2023-12-29T08:02:47;5.9;;;2.9;;
27357;SDS011;14831;50.474;7.616;2023-12-29T08:07:47;5.9;;;2.9;;
27357;SDS011;14831;50.474;7.616;2023-12-29T08:12:47;5.9;;;2.9;;
27357;SDS011;14831;50.474;7.616;2023-12-29T08:17:47;6.3;;;2.1;;
27357;SDS011;14831;50.474;7.616;2023-12-29T08:22:47;6.3;;;2.1;;
27357;SDS011;14831;50.474;7.616;2023-12-29T08:27:47;6.3;;;2.1;;
27357;SDS011;14831;50.474;7.616;2023-12-29T08:32:47;6.3;;;2.1;;
27357;SDS011;14831;50.474;7.616;2023-12-29T08:37:47;6.3;;;2.1;;
27357;SDS011;14831;50.474;7.616;2023-12-29T08:42:47;6.3;;;2.1;;
27357;SDS011;14831;50.474;7.616;2023-12-29T08:47:47;7.2;;;2.2;;
27357;SDS011;14831;50.474;7.616;2023-12-29T08:52:47;7.2;;;2.2;;
27357;SDS011;14831;50.474;7.616;2023-12-29T08:57:47;7.2;;;2.2;;
27357;SDS011;14831;50.474;7.616;2023-12-29T09:02:47;7.2;;;2.2;;
27357;SDS011;14831;50.474;7.616;2023-12-29T09:07:48;7.2;;;2.2;;
27357;SDS011;14831;50.474;7.616;2023-12-29T09:12:47;7.2;;;2.2;;
27357;SDS011;14831;50.474;7.616;2023-12-29T09:17:47;6.7;;;2.1;;
27357;SDS011;14831;50.474;7.616;2023-12-29T09:22:47;6.7;;;2.1;;
27357;SDS011;14831;50.474;7.616;2023-12-29T09:27:47;6.7;;;2.1;;
27357;SDS011;14831;50.474;7.616;2023-12-29T09:32:47;6.7;;;2.1;;
27357;SDS011;14831;50.474;7.616;2023-12-29T09:37:47;6.7;;;2.1;;
27357;SDS011;14831;50.474;7.616;2023-12-29T09:42:48;6.7;;;2.1;;
27357;SDS011;14831;50.474;7.616;2023-12-29T09:47:48;4.9;;;1.8;;
27357;SDS011;14831;50.474;7.616;2023-12-29T09:52:48;4.9;;;1.8;;
27357;SDS011;14831;50.474;7.616;2023-12-29T09:57:48;4.9;;;1.8;;
27357;SDS011;14831;50.474;7.616;2023-12-29T10:02:51;4.9;;;1.8;;
27357;SDS011;14831;50.474;7.616;2023-12-29T10:07:48;4.9;;;1.8;;
27357;SDS011;14831;50.474;7.616;2023-12-29T10:12:48;4.9;;;1.8;;
27357;SDS011;14831;50.474;7.616;2023-12-29T10:17:52;3.1;;;1.4;;
27357;SDS011;14831;50.474;7.616;2023-12-29T10:22:51;3.1;;;1.4;;
27357;SDS011;14831;50.474;7.616;2023-12-29T10:27:47;3.1;;;1.4;;
27357;SDS011;14831;50.474;7.616;2023-12-29T10:32:49;3.1;;;1.4;;
27357;SDS011;14831;50.474;7.616;2023-12-29T10:37:47;3.1;;;1.4;;
27357;SDS011;14831;50.474;7.616;2023-12-29T10:42:55;3.1;;;1.4;;
27357;SDS011;14831;50.474;7.616;2023-12-29T10:47:48;3.0;;;1.4;;
27357;SDS011;14831;50.474;7.616;2023-12-29T10:52:47;3.0;;;1.4;;
27357;SDS011;14831;50.474;7.616;2023-12-29T10:57:59;3.0;;;1.4;;
27357;SDS011;14831;50.474;7.616;2023-12-29T11:02:53;3.0;;;1.4;;
27357;SDS011;14831;50.474;7.616;2023-12-29T11:07:47;3.0;;;1.4;;
27357;SDS011;14831;50.474;7.616;2023-12-29T11:12:48;3.0;;;1.4;;
27357;SDS011;14831;50.474;7.616;2023-12-29T11:17:50;2.4;;;1.1;;
27357;SDS011;14831;50.474;7.616;2023-12-29T11:22:47;2.4;;;1.1;;
27357;SDS011;14831;50.474;7.616;2023-12-29T11:27:48;2.4;;;1.1;;
27357;SDS011;14831;50.474;7.616;2023-12-29T11:32:51;2.4;;;1.1;;
27357;SDS011;14831;50.474;7.616;2023-12-29T11:37:59;2.4;;;1.1;;
27357;SDS011;14831;50.474;7.616;2023-12-29T11:42:49;2.4;;;1.1;;
27357;SDS011;14831;50.474;7.616;2023-12-29T11:47:47;3.8;;;1.2;;
27357;SDS011;14831;50.474;7.616;2023-12-29T11:52:47;3.8;;;1.2;;
27357;SDS011;14831;50.474;7.616;2023-12-29T11:57:47;3.8;;;1.2;;
27357;SDS011;14831;50.474;7.616;2023-12-29T12:02:47;3.8;;;1.2;;
27357;SDS011;14831;50.474;7.616;2023-12-29T12:08:03;3.8;;;1.2;;
27357;SDS011;14831;50.474;7.616;2023-12-29T12:12:48;3.8;;;1.2;;
27357;SDS011;14831;50.474;7.616;2023-12-29T12:17:50;1.9;;;1.0;;
27357;SDS011;14831;50.474;7.616;2023-12-29T12:22:50;1.9;;;1.0;;
27357;SDS011;14831;50.474;7.616;2023-12-29T12:27:47;1.9;;;1.0;;
27357;SDS011;14831;50.474;7.616;2023-12-29T12:32:57;1.9;;;1.0;;
27357;SDS011;14831;50.474;7.616;2023-12-29T12:37:47;1.9;;;1.0;;
27357;SDS011;14831;50.474;7.616;2023-12-29T12:42:47;1.9;;;1.0;;
27357;SDS011;14831;50.474;7.616;2023-12-29T12:47:52;1.4;;;0.9;;
27357;SDS011;14831;50.474;7.616;2023-12-29T12:52:47;1.4;;;0.9;;
27357;SDS011;14831;50.474;7.616;2023-12-29T12:57:47;1.4;;;0.9;;
27357;SDS011;14831;50.474;7.616;2023-12-29T13:02:47;1.4;;;0.9;;
27357;SDS011;14831;50.474;7.616;2023-12-29T13:07:47;1.4;;;0.9;;
27357;SDS011;14831;50.474;7.616;2023-12-29T13:12:52;1.4;;;0.9;;
27357;SDS011;14831;50.474;7.616;2023-12-29T13:17:50;0.9;;;0.9;;
27357;SDS011;14831;50.474;7.616;2023-12-29T13:22:49;0.9;;;0.9;;
27357;SDS011;14831;50.474;7.616;2023-12-29T13:27:48;0.9;;;0.9;;
27357;SDS011;14831;50.474;7.616;2023-12-29T13:32:48;0.9;;;0.9;;
27357;SDS011;14831;50.474;7.616;2023-12-29T13:37:51;0.9;;;0.9;;
27357;SDS011;14831;50.474;7.616;2023-12-29T13:42:48;0.9;;;0.9;;
27357;SDS011;14831;50.474;7.616;2023-12-29T13:47:47;1.9;;;1.2;;
27357;SDS011;14831;50.474;7.616;2023-12-29T13:52:49;1.9;;;1.2;;
27357;SDS011;14831;50.474;7.616;2023-12-29T13:57:48;1.9;;;1.2;;
27357;SDS011;14831;50.474;7.616;2023-12-29T14:02:48;1.9;;;1.2;;
27357;SDS011;14831;50.474;7.616;2023-12-29T14:07:53;1.9;;;1.2;;
27357;SDS011;14831;50.474;7.616;2023-12-29T14:12:47;1.9;;;1.2;;
27357;SDS011;14831;50.474;7.616;2023-12-29T14:17:47;37.5;;;21.2;;
27357;SDS011;14831;50.474;7.616;2023-12-29T14:22:47;37.5;;;21.2;;
27357;SDS011;14831;50.474;7.616;2023-12-29T14:27:52;37.5;;;21.2;;
27357;SDS011;14831;50.474;7.616;2023-12-29T14:32:47;37.5;;;21.2;;
27357;SDS011;14831;50.474;7.616;2023-12-29T14:37:47;37.5;;;21.2;;
27357;SDS011;14831;50.474;7.616;2023-12-29T14:42:47;37.5;;;21.2;;
27357;SDS011;14831;50.474;7.616;2023-12-29T14:47:47;4.7;;;3.8;;
27357;SDS011;14831;50.474;7.616;2023-12-29T14:52:47;4.7;;;3.8;;
27357;SDS011;14831;50.474;7.616;2023-12-29T14:57:47;4.7;;;3.8;;
27357;SDS011;14831;50.474;7.616;2023-12-29T15:02:47;4.7;;;3.8;;
27357;SDS011;14831;50.474;7.616;2023-12-29T15:07:47;4.7;;;3.8;;
27357;SDS011;14831;50.474;7.616;2023-12-29T15:12:47;4.7;;;3.8;;
27357;SDS011;14831;50.474;7.616;2023-12-29T15:17:48;2.7;;;1.4;;
27357;SDS011;14831;50.474;7.616;2023-12-29T15:22:47;2.7;;;1.4;;
27357;SDS011;14831;50.474;7.616;2023-12-29T15:27:47;2.7;;;1.4;;
27357;SDS011;14831;50.474;7.616;2023-12-29T15:32:47;2.7;;;1.4;;
27357;SDS011;14831;50.474;7.616;2023-12-29T15:37:47;2.7;;;1.4;;
27357;SDS011;14831;50.474;7.616;2023-12-29T15:42:47;2.7;;;1.4;;
27357;SDS011;14831;50.474;7.616;2023-12-29T15:47:47;4.3;;;1.8;;
27357;SDS011;14831;50.474;7.616;2023-12-29T15:52:47;4.3;;;1.8;;
27357;SDS011;14831;50.474;7.616;2023-12-29T15:57:47;4.3;;;1.8;;
27357;SDS011;14831;50.474;7.616;2023-12-29T16:02:47;4.3;;;1.8;;
27357;SDS011;14831;50.474;7.616;2023-12-29T16:07:47;4.3;;;1.8;;
27357;SDS011;14831;50.474;7.616;2023-12-29T16:12:47;4.3;;;1.8;;
27357;SDS011;14831;50.474;7.616;2023-12-29T16:17:47;9.9;;;5.2;;
27357;SDS011;14831;50.474;7.616;2023-12-29T16:22:47;9.9;;;5.2;;
27357;SDS011;14831;50.474;7.616;2023-12-29T16:27:47;9.9;;;5.2;;
27357;SDS011;14831;50.474;7.616;2023-12-29T16:32:47;9.9;;;5.2;;
27357;SDS011;14831;50.474;7.616;2023-12-29T16:37:47;9.9;;;5.2;;
27357;SDS011;14831;50.474;7.616;2023-12-29T16:42:47;9.9;;;5.2;;
27357;SDS011;14831;50.474;7.616;2023-12-29T16:47:47;5.0;;;2.4;;
27357;SDS011;14831;50.474;7.616;2023-12-29T16:52:48;5.0;;;2.4;;
27357;SDS011;14831;50.474;7.616;2023-12-29T16:57:47;5.0;;;2.4;;
27357;SDS011;14831;50.474;7.616;2023-12-29T17:02:47;5.0;;;2.4;;
27357;SDS011;14831;50.474;7.616;2023-12-29T17:07:47;5.0;;;2.4;;
27357;SDS011;14831;50.474;7.616;2023-12-29T17:12:47;5.0;;;2.4;;
27357;SDS011;14831;50.474;7.616;2023-12-29T17:17:48;6.0;;;3.3;;
27357;SDS011;14831;50.474;7.616;2023-12-29T17:22:47;6.0;;;3.3;;
27357;SDS011;14831;50.474;7.616;2023-12-29T17:27:47;6.0;;;3.3;;
27357;SDS011;14831;50.474;7.616;2023-12-29T17:32:47;6.0;;;3.3;;
27357;SDS011;14831;50.474;7.616;2023-12-29T17:37:47;6.0;;;3.3;;
27357;SDS011;14831;50.474;7.616;2023-12-29T17:42:47;6.0;;;3.3;;
27357;SDS011;14831;50.474;7.616;2023-12-29T17:47:47;4.7;;;1.8;;
27357;SDS011;14831;50.474;7.616;2023-12-29T17:52:47;4.7;;;1.8;;
27357;SDS011;14831;50.474;7.616;2023-12-29T17:57:47;4.7;;;1.8;;
27357;SDS011;14831;50.474;7.616;2023-12-29T18:02:47;4.7;;;1.8;;
27357;SDS011;14831;50.474;7.616;2023-12-29T18:07:47;4.7;;;1.8;;
27357;SDS011;14831;50.474;7.616;2023-12-29T18:12:47;4.7;;;1.8;;
27357;SDS011;14831;50.474;7.616;2023-12-29T18:17:47;6.7;;;3.3;;
27357;SDS011;14831;50.474;7.616;2023-12-29T18:22:47;6.7;;;3.3;;
27357;SDS011;14831;50.474;7.616;2023-12-29T18:27:47;6.7;;;3.3;;
27357;SDS011;14831;50.474;7.616;2023-12-29T18:32:47;6.7;;;3.3;;
27357;SDS011;14831;50.474;7.616;2023-12-29T18:37:47;6.7;;;3.3;;
27357;SDS011;14831;50.474;7.616;2023-12-29T18:42:47;6.7;;;3.3;;
27357;SDS011;14831;50.474;7.616;2023-12-29T18:47:47;6.5;;;4.4;;
27357;SDS011;14831;50.474;7.616;2023-12-29T18:52:47;6.5;;;4.4;;
27357;SDS011;14831;50.474;7.616;2023-12-29T18:57:47;6.5;;;4.4;;
27357;SDS011;14831;50.474;7.616;2023-12-29T19:02:47;6.5;;;4.4;;
27357;SDS011;14831;50.474;7.616;2023-12-29T19:07:47;6.5;;;4.4;;
27357;SDS011;14831;50.474;7.616;2023-12-29T19:12:47;6.5;;;4.4;;
27357;SDS011;14831;50.474;7.616;2023-12-29T19:17:47;4.4;;;2.8;;
27357;SDS011;14831;50.474;7.616;2023-12-29T19:22:47;4.4;;;2.8;;
27357;SDS011;14831;50.474;7.616;2023-12-29T19:27:48;4.4;;;2.8;;
27357;SDS011;14831;50.474;7.616;2023-12-29T19:32:47;4.4;;;2.8;;
27357;SDS011;14831;50.474;7.616;2023-12-29T19:37:47;4.4;;;2.8;;
27357;SDS011;14831;50.474;7.616;2023-12-29T19:42:47;4.4;;;2.8;;
27357;SDS011;14831;50.474;7.616;2023-12-29T19:47:47;5.2;;;2.5;;
27357;SDS011;14831;50.474;7.616;2023-12-29T19:52:47;5.2;;;2.5;;
27357;SDS011;14831;50.474;7.616;2023-12-29T19:57:47;5.2;;;2.5;;
27357;SDS011;14831;50.474;7.616;2023-12-29T20:02:47;5.2;;;2.5;;
27357;SDS011;14831;50.474;7.616;2023-12-29T20:07:47;5.2;;;2.5;;
27357;SDS011;14831;50.474;7.616;2023-12-29T20:12:47;5.2;;;2.5;;
27357;SDS011;14831;50.474;7.616;2023-12-29T20:17:47;3.6;;;2.0;;
27357;SDS011;14831;50.474;7.616;2023-12-29T20:22:47;3.6;;;2.0;;
27357;SDS011;14831;50.474;7.616;2023-12-29T20:27:47;3.6;;;2.0;;
27357;SDS011;14831;50.474;7.616;2023-12-29T20:32:47;3.6;;;2.0;;
27357;SDS011;14831;50.474;7.616;2023-12-29T20:37:47;3.6;;;2.0;;
27357;SDS011;14831;50.474;7.616;2023-12-29T20:42:47;3.6;;;2.0;;
27357;SDS011;14831;50.474;7.616;2023-12-29T20:47:47;4.3;;;2.5;;
27357;SDS011;14831;50.474;7.616;2023-12-29T20:52:47;4.3;;;2.5;;
27357;SDS011;14831;50.474;7.616;2023-12-29T20:57:47;4.3;;;2.5;;
27357;SDS011;14831;50.474;7.616;2023-12-29T21:02:47;4.3;;;2.5;;
27357;SDS011;14831;50.474;7.616;2023-12-29T21:07:47;4.3;;;2.5;;
27357;SDS011;14831;50.474;7.616;2023-12-29T21:12:48;4.3;;;2.5;;
27357;SDS011;14831;50.474;7.616;2023-12-29T21:17:47;3.4;;;1.8;;
27357;SDS011;14831;50.474;7.616;2023-12-29T21:22:47;3.4;;;1.8;;
27357;SDS011;14831;50.474;7.616;2023-12-29T21:27:47;3.4;;;1.8;;
27357;SDS011;14831;50.474;7.616;2023-12-29T21:32:47;3.4;;;1.8;;
27357;SDS011;14831;50.474;7.616;2023-12-29T21:37:47;3.4;;;1.8;;
27357;SDS011;14831;50.474;7.616;2023-12-29T21:42:47;3.4;;;1.8;;
27357;SDS011;14831;50.474;7.616;2023-12-29T21:47:48;2.2;;;1.3;;
27357;SDS011;14831;50.474;7.616;2023-12-29T21:52:47;2.2;;;1.3;;
27357;SDS011;14831;50.474;7.616;2023-12-29T21:57:48;2.2;;;1.3;;
27357;SDS011;14831;50.474;7.616;2023-12-29T22:02:47;2.2;;;1.3;;
27357;SDS011;14831;50.474;7.616;2023-12-29T22:07:47;2.2;;;1.3;;
27357;SDS011;14831;50.474;7.616;2023-12-29T22:12:47;2.2;;;1.3;;
27357;SDS011;14831;50.474;7.616;2023-12-29T22:17:47;3.7;;;1.6;;
27357;SDS011;14831;50.474;7.616;2023-12-29T22:22:47;3.7;;;1.6;;
27357;SDS011;14831;50.474;7.616;2023-12-29T22:27:47;3.7;;;1.6;;
27357;SDS011;14831;50.474;7.616;2023-12-29T22:32:47;3.7;;;1.6;;
27357;SDS011;14831;50.474;7.616;2023-12-29T22:37:48;3.7;;;1.6;;
27357;SDS011;14831;50.474;7.616;2023-12-29T22:42:47;3.7;;;1.6;;
27357;SDS011;14831;50.474;7.616;2023-12-29T22:47:47;3.3;;;1.4;;
27357;SDS011;14831;50.474;7.616;2023-12-29T22:52:47;3.3;;;1.4;;
27357;SDS011;14831;50.474;7.616;2023-12-29T22:57:47;3.3;;;1.4;;
27357;SDS011;14831;50.474;7.616;2023-12-29T23:02:47;3.3;;;1.4;;
27357;SDS011;14831;50.474;7.616;2023-12-29T23:07:47;3.3;;;1.4;;
27357;SDS011;14831;50.474;7.616;2023-12-29T23:12:47;3.3;;;1.4;;
27357;SDS011;14831;50.474;7.616;2023-12-29T23:17:49;5.5;;;1.8;;
27357;SDS011;14831;50.474;7.616;2023-12-29T23:22:47;5.5;;;1.8;;
27357;SDS011;14831;50.474;7.616;2023-12-29T23:27:48;5.5;;;1.8;;
27357;SDS011;14831;50.474;7.616;2023-12-29T23:32:47;5.5;;;1.8;;
27357;SDS011;14831;50.474;7.616;2023-12-29T23:37:48;5.5;;;1.8;;
27357;SDS011;14831;50.474;7.616;2023-12-29T23:42:47;5.5;;;1.8;;
27357;SDS011;14831;50.474;7.616;2023-12-29T23:47:47;4.2;;;1.8;;
27357;SDS011;14831;50.474;7.616;2023-12-29T23:52:47;4.2;;;1.8;;
27357;SDS011;14831;50.474;7.616;2023-12-29T23:57:47;4.2;;;1.8;;
